sensor_id;sensor_type;location;lat;lon;timestamp;temperature;humidity
23507;DHT22;11930;53.076;18.250;2023-12-07T00:01:08;-1.70;99.90
23507;DHT22;11930;53.076;18.250;2023-12-07T00:03:34;-1.70;99.90
23507;DHT22;11930;53.076;18.250;2023-12-07T00:06:01;-1.70;99.90
23507;DHT22;11930;53.076;18.250;2023-12-07T00:08:27;-1.70;99.90
23507;DHT22;11930;53.076;18.250;2023-12-07T00:10:55;-1.70;99.90
23507;DHT22;11930;53.076;18.250;2023-12-07T00:13:21;-1.70;99.90
23507;DHT22;11930;53.076;18.250;2023-12-07T00:15:47;-1.80;99.90
23507;DHT22;11930;53.076;18.250;2023-12-07T00:18:13;-1.70;99.90
23507;DHT22;11930;53.076;18.250;2023-12-07T00:20:39;-1.70;99.90
23507;DHT22;11930;53.076;18.250;2023-12-07T00:23:05;-1.70;99.90
23507;DHT22;11930;53.076;18.250;2023-12-07T00:25:31;-1.70;99.90
23507;DHT22;11930;53.076;18.250;2023-12-07T00:27:57;-1.70;99.90
23507;DHT22;11930;53.076;18.250;2023-12-07T00:30:24;-1.70;99.90
23507;DHT22;11930;53.076;18.250;2023-12-07T00:32:50;-1.70;99.90
23507;DHT22;11930;53.076;18.250;2023-12-07T00:35:16;-1.70;99.90
23507;DHT22;11930;53.076;18.250;2023-12-07T00:37:42;-1.70;99.90
23507;DHT22;11930;53.076;18.250;2023-12-07T00:40:08;-1.70;99.90
23507;DHT22;11930;53.076;18.250;2023-12-07T00:42:34;-1.70;99.90
23507;DHT22;11930;53.076;18.250;2023-12-07T00:45:01;-1.70;99.90
23507;DHT22;11930;53.076;18.250;2023-12-07T00:47:27;-1.70;99.90
23507;DHT22;11930;53.076;18.250;2023-12-07T00:49:54;-1.70;99.90
23507;DHT22;11930;53.076;18.250;2023-12-07T00:52:19;-1.70;99.90
23507;DHT22;11930;53.076;18.250;2023-12-07T00:54:46;-1.70;99.90
23507;DHT22;11930;53.076;18.250;2023-12-07T00:57:12;-1.70;99.90
23507;DHT22;11930;53.076;18.250;2023-12-07T00:59:38;-1.70;99.90
23507;DHT22;11930;53.076;18.250;2023-12-07T01:02:04;-1.70;99.90
23507;DHT22;11930;53.076;18.250;2023-12-07T01:04:31;-1.70;99.90
23507;DHT22;11930;53.076;18.250;2023-12-07T01:06:58;-1.60;99.90
23507;DHT22;11930;53.076;18.250;2023-12-07T01:09:25;-1.70;99.90
23507;DHT22;11930;53.076;18.250;2023-12-07T01:11:51;-1.70;99.90
23507;DHT22;11930;53.076;18.250;2023-12-07T01:14:18;-1.70;99.90
23507;DHT22;11930;53.076;18.250;2023-12-07T01:16:44;-1.70;99.90
23507;DHT22;11930;53.076;18.250;2023-12-07T01:19:11;-1.70;99.90
23507;DHT22;11930;53.076;18.250;2023-12-07T01:21:40;-1.70;99.90
23507;DHT22;11930;53.076;18.250;2023-12-07T01:24:07;-1.70;99.90
23507;DHT22;11930;53.076;18.250;2023-12-07T01:26:33;-1.70;99.90
23507;DHT22;11930;53.076;18.250;2023-12-07T01:29:00;-1.70;99.90
23507;DHT22;11930;53.076;18.250;2023-12-07T01:31:26;-1.70;99.90
23507;DHT22;11930;53.076;18.250;2023-12-07T01:33:52;-1.70;99.90
23507;DHT22;11930;53.076;18.250;2023-12-07T01:36:18;-1.70;99.90
23507;DHT22;11930;53.076;18.250;2023-12-07T01:38:44;-1.70;99.90
23507;DHT22;11930;53.076;18.250;2023-12-07T01:41:10;-1.60;99.90
23507;DHT22;11930;53.076;18.250;2023-12-07T01:43:37;-1.70;99.90
23507;DHT22;11930;53.076;18.250;2023-12-07T01:46:03;-1.70;99.90
23507;DHT22;11930;53.076;18.250;2023-12-07T01:48:30;-1.70;99.90
23507;DHT22;11930;53.076;18.250;2023-12-07T01:50:57;-1.70;99.90
23507;DHT22;11930;53.076;18.250;2023-12-07T01:53:25;-1.70;99.90
23507;DHT22;11930;53.076;18.250;2023-12-07T01:55:52;-1.70;99.90
23507;DHT22;11930;53.076;18.250;2023-12-07T01:58:20;-1.70;99.90
23507;DHT22;11930;53.076;18.250;2023-12-07T02:00:47;-1.70;99.90
23507;DHT22;11930;53.076;18.250;2023-12-07T02:03:13;-1.70;99.90
23507;DHT22;11930;53.076;18.250;2023-12-07T02:05:46;-1.70;99.90
23507;DHT22;11930;53.076;18.250;2023-12-07T02:08:12;-1.70;99.90
23507;DHT22;11930;53.076;18.250;2023-12-07T02:10:38;-1.70;99.90
23507;DHT22;11930;53.076;18.250;2023-12-07T02:13:05;-1.70;99.90
23507;DHT22;11930;53.076;18.250;2023-12-07T02:15:32;-1.70;99.90
23507;DHT22;11930;53.076;18.250;2023-12-07T02:20:43;-1.70;99.90
23507;DHT22;11930;53.076;18.250;2023-12-07T02:23:14;-1.70;99.90
23507;DHT22;11930;53.076;18.250;2023-12-07T02:29:17;-1.80;99.90
23507;DHT22;11930;53.076;18.250;2023-12-07T02:31:43;-1.80;99.90
23507;DHT22;11930;53.076;18.250;2023-12-07T02:34:09;-1.80;99.90
23507;DHT22;11930;53.076;18.250;2023-12-07T02:36:38;-1.80;99.90
23507;DHT22;11930;53.076;18.250;2023-12-07T02:39:05;-1.80;99.90
23507;DHT22;11930;53.076;18.250;2023-12-07T02:41:32;-1.80;99.90
23507;DHT22;11930;53.076;18.250;2023-12-07T02:44:00;-1.90;99.90
23507;DHT22;11930;53.076;18.250;2023-12-07T02:46:26;-1.80;99.90
23507;DHT22;11930;53.076;18.250;2023-12-07T02:48:52;-1.90;99.90
23507;DHT22;11930;53.076;18.250;2023-12-07T02:51:18;-1.90;99.90
23507;DHT22;11930;53.076;18.250;2023-12-07T02:53:46;-1.90;99.90
23507;DHT22;11930;53.076;18.250;2023-12-07T02:56:11;-2.00;99.90
23507;DHT22;11930;53.076;18.250;2023-12-07T02:58:38;-2.00;99.90
23507;DHT22;11930;53.076;18.250;2023-12-07T03:01:04;-2.00;99.90
23507;DHT22;11930;53.076;18.250;2023-12-07T03:03:30;-2.00;99.90
23507;DHT22;11930;53.076;18.250;2023-12-07T03:05:56;-2.00;99.90
23507;DHT22;11930;53.076;18.250;2023-12-07T03:08:22;-2.10;99.90
23507;DHT22;11930;53.076;18.250;2023-12-07T03:10:48;-2.00;99.90
23507;DHT22;11930;53.076;18.250;2023-12-07T03:13:15;-2.00;99.90
23507;DHT22;11930;53.076;18.250;2023-12-07T03:15:41;-2.10;99.90
23507;DHT22;11930;53.076;18.250;2023-12-07T03:18:07;-2.10;99.90
23507;DHT22;11930;53.076;18.250;2023-12-07T03:20:34;-2.10;99.90
23507;DHT22;11930;53.076;18.250;2023-12-07T03:23:00;-2.10;99.90
23507;DHT22;11930;53.076;18.250;2023-12-07T03:25:26;-2.10;99.90
23507;DHT22;11930;53.076;18.250;2023-12-07T03:27:52;-2.10;99.90
23507;DHT22;11930;53.076;18.250;2023-12-07T03:30:18;-2.10;99.90
23507;DHT22;11930;53.076;18.250;2023-12-07T03:32:44;-2.10;99.90
23507;DHT22;11930;53.076;18.250;2023-12-07T03:35:10;-2.10;99.90
23507;DHT22;11930;53.076;18.250;2023-12-07T03:37:37;-2.10;99.90
23507;DHT22;11930;53.076;18.250;2023-12-07T03:40:03;-2.10;99.90
23507;DHT22;11930;53.076;18.250;2023-12-07T03:42:31;-2.10;99.90
23507;DHT22;11930;53.076;18.250;2023-12-07T03:44:57;-2.00;99.90
23507;DHT22;11930;53.076;18.250;2023-12-07T03:47:23;-2.00;99.90
23507;DHT22;11930;53.076;18.250;2023-12-07T03:49:49;-2.10;99.90
23507;DHT22;11930;53.076;18.250;2023-12-07T03:52:16;-2.00;99.90
23507;DHT22;11930;53.076;18.250;2023-12-07T03:54:41;-2.00;99.90
23507;DHT22;11930;53.076;18.250;2023-12-07T03:57:08;-2.00;99.90
23507;DHT22;11930;53.076;18.250;2023-12-07T03:59:36;-2.00;99.90
23507;DHT22;11930;53.076;18.250;2023-12-07T04:02:02;-2.00;99.90
23507;DHT22;11930;53.076;18.250;2023-12-07T04:04:28;-2.00;99.90
23507;DHT22;11930;53.076;18.250;2023-12-07T04:06:55;-2.00;99.90
23507;DHT22;11930;53.076;18.250;2023-12-07T04:09:20;-2.00;99.90
23507;DHT22;11930;53.076;18.250;2023-12-07T04:11:47;-2.00;99.90
23507;DHT22;11930;53.076;18.250;2023-12-07T04:14:13;-1.90;99.90
23507;DHT22;11930;53.076;18.250;2023-12-07T04:16:39;-1.90;99.90
23507;DHT22;11930;53.076;18.250;2023-12-07T04:19:05;-1.90;99.90
23507;DHT22;11930;53.076;18.250;2023-12-07T04:21:31;-1.90;99.90
23507;DHT22;11930;53.076;18.250;2023-12-07T04:23:57;-1.90;99.90
23507;DHT22;11930;53.076;18.250;2023-12-07T04:26:24;-1.80;99.90
23507;DHT22;11930;53.076;18.250;2023-12-07T04:28:49;-1.80;99.90
23507;DHT22;11930;53.076;18.250;2023-12-07T04:31:16;-1.80;99.90
23507;DHT22;11930;53.076;18.250;2023-12-07T04:33:42;-1.80;99.90
23507;DHT22;11930;53.076;18.250;2023-12-07T04:36:08;-1.80;99.90
23507;DHT22;11930;53.076;18.250;2023-12-07T04:38:34;-1.70;99.90
23507;DHT22;11930;53.076;18.250;2023-12-07T04:41:00;-1.70;99.90
23507;DHT22;11930;53.076;18.250;2023-12-07T04:43:26;-1.70;99.90
23507;DHT22;11930;53.076;18.250;2023-12-07T04:45:52;-1.60;99.90
23507;DHT22;11930;53.076;18.250;2023-12-07T04:48:18;-1.60;99.90
23507;DHT22;11930;53.076;18.250;2023-12-07T04:50:44;-1.60;99.90
23507;DHT22;11930;53.076;18.250;2023-12-07T04:53:10;-1.60;99.90
23507;DHT22;11930;53.076;18.250;2023-12-07T04:55:37;-1.60;99.90
23507;DHT22;11930;53.076;18.250;2023-12-07T04:58:03;-1.60;99.90
23507;DHT22;11930;53.076;18.250;2023-12-07T05:00:29;-1.50;99.90
23507;DHT22;11930;53.076;18.250;2023-12-07T05:02:55;-1.50;99.90
23507;DHT22;11930;53.076;18.250;2023-12-07T05:05:21;-1.50;99.90
23507;DHT22;11930;53.076;18.250;2023-12-07T05:07:47;-1.50;99.90
23507;DHT22;11930;53.076;18.250;2023-12-07T05:10:13;-1.50;99.90
23507;DHT22;11930;53.076;18.250;2023-12-07T05:12:40;-1.50;99.90
23507;DHT22;11930;53.076;18.250;2023-12-07T05:15:06;-1.40;99.90
23507;DHT22;11930;53.076;18.250;2023-12-07T05:17:33;-1.40;99.90
23507;DHT22;11930;53.076;18.250;2023-12-07T05:19:59;-1.50;99.90
23507;DHT22;11930;53.076;18.250;2023-12-07T05:22:25;-1.50;99.90
23507;DHT22;11930;53.076;18.250;2023-12-07T05:24:51;-1.50;99.90
23507;DHT22;11930;53.076;18.250;2023-12-07T05:27:17;-1.50;99.90
23507;DHT22;11930;53.076;18.250;2023-12-07T05:29:43;-1.50;99.90
23507;DHT22;11930;53.076;18.250;2023-12-07T05:32:09;-1.50;99.90
23507;DHT22;11930;53.076;18.250;2023-12-07T05:34:36;-1.50;99.90
23507;DHT22;11930;53.076;18.250;2023-12-07T05:37:02;-1.50;99.90
23507;DHT22;11930;53.076;18.250;2023-12-07T05:39:30;-1.50;99.90
23507;DHT22;11930;53.076;18.250;2023-12-07T05:41:56;-1.50;99.90
23507;DHT22;11930;53.076;18.250;2023-12-07T05:44:22;-1.50;99.90
23507;DHT22;11930;53.076;18.250;2023-12-07T05:46:49;-1.50;99.90
23507;DHT22;11930;53.076;18.250;2023-12-07T05:49:15;-1.50;99.90
23507;DHT22;11930;53.076;18.250;2023-12-07T05:51:41;-1.50;99.90
23507;DHT22;11930;53.076;18.250;2023-12-07T05:54:08;-1.40;99.90
23507;DHT22;11930;53.076;18.250;2023-12-07T05:56:34;-1.50;99.90
23507;DHT22;11930;53.076;18.250;2023-12-07T05:59:00;-1.50;99.90
23507;DHT22;11930;53.076;18.250;2023-12-07T06:01:26;-1.40;99.90
23507;DHT22;11930;53.076;18.250;2023-12-07T06:03:52;-1.40;99.90
23507;DHT22;11930;53.076;18.250;2023-12-07T06:06:18;-1.40;99.90
23507;DHT22;11930;53.076;18.250;2023-12-07T06:08:47;-1.40;99.90
23507;DHT22;11930;53.076;18.250;2023-12-07T06:11:13;-1.40;99.90
23507;DHT22;11930;53.076;18.250;2023-12-07T06:13:39;-1.30;99.90
23507;DHT22;11930;53.076;18.250;2023-12-07T06:16:05;-1.30;99.90
23507;DHT22;11930;53.076;18.250;2023-12-07T06:18:35;-1.30;99.90
23507;DHT22;11930;53.076;18.250;2023-12-07T06:21:03;-1.30;99.90
23507;DHT22;11930;53.076;18.250;2023-12-07T06:23:29;-1.30;99.90
23507;DHT22;11930;53.076;18.250;2023-12-07T06:25:55;-1.30;99.90
23507;DHT22;11930;53.076;18.250;2023-12-07T06:28:22;-1.30;99.90
23507;DHT22;11930;53.076;18.250;2023-12-07T06:30:47;-1.30;99.90
23507;DHT22;11930;53.076;18.250;2023-12-07T06:33:14;-1.30;99.90
23507;DHT22;11930;53.076;18.250;2023-12-07T06:35:40;-1.30;99.90
23507;DHT22;11930;53.076;18.250;2023-12-07T06:38:06;-1.20;99.90
23507;DHT22;11930;53.076;18.250;2023-12-07T06:40:32;-1.20;99.90
23507;DHT22;11930;53.076;18.250;2023-12-07T06:42:58;-1.20;99.90
23507;DHT22;11930;53.076;18.250;2023-12-07T06:45:25;-1.20;99.90
23507;DHT22;11930;53.076;18.250;2023-12-07T06:47:51;-1.20;99.90
23507;DHT22;11930;53.076;18.250;2023-12-07T06:50:17;-1.20;99.90
23507;DHT22;11930;53.076;18.250;2023-12-07T06:52:43;-1.10;99.90
23507;DHT22;11930;53.076;18.250;2023-12-07T06:55:10;-1.10;99.90
23507;DHT22;11930;53.076;18.250;2023-12-07T06:57:37;-1.10;99.90
23507;DHT22;11930;53.076;18.250;2023-12-07T07:00:03;-1.10;99.90
23507;DHT22;11930;53.076;18.250;2023-12-07T07:02:32;-1.20;99.90
23507;DHT22;11930;53.076;18.250;2023-12-07T07:04:57;-1.10;99.90
23507;DHT22;11930;53.076;18.250;2023-12-07T07:07:24;-1.10;99.90
23507;DHT22;11930;53.076;18.250;2023-12-07T07:09:50;-1.10;99.90
23507;DHT22;11930;53.076;18.250;2023-12-07T07:12:16;-1.10;99.90
23507;DHT22;11930;53.076;18.250;2023-12-07T07:14:42;-1.10;99.90
23507;DHT22;11930;53.076;18.250;2023-12-07T07:17:08;-1.10;99.90
23507;DHT22;11930;53.076;18.250;2023-12-07T07:19:34;-1.10;99.90
23507;DHT22;11930;53.076;18.250;2023-12-07T07:22:00;-1.10;99.90
23507;DHT22;11930;53.076;18.250;2023-12-07T07:24:26;-1.00;99.90
23507;DHT22;11930;53.076;18.250;2023-12-07T07:26:52;-1.00;99.90
23507;DHT22;11930;53.076;18.250;2023-12-07T07:29:18;-1.00;99.90
23507;DHT22;11930;53.076;18.250;2023-12-07T07:31:45;-1.00;99.90
23507;DHT22;11930;53.076;18.250;2023-12-07T07:34:11;-1.00;99.90
23507;DHT22;11930;53.076;18.250;2023-12-07T07:36:37;-1.00;99.90
23507;DHT22;11930;53.076;18.250;2023-12-07T07:39:03;-1.00;99.90
23507;DHT22;11930;53.076;18.250;2023-12-07T07:41:34;-1.00;99.90
23507;DHT22;11930;53.076;18.250;2023-12-07T07:44:00;-0.90;99.90
23507;DHT22;11930;53.076;18.250;2023-12-07T07:46:26;-0.90;99.90
23507;DHT22;11930;53.076;18.250;2023-12-07T07:48:52;-0.90;99.90
23507;DHT22;11930;53.076;18.250;2023-12-07T07:51:18;-0.90;99.90
23507;DHT22;11930;53.076;18.250;2023-12-07T07:53:44;-0.90;99.90
23507;DHT22;11930;53.076;18.250;2023-12-07T07:56:11;-0.80;99.90
23507;DHT22;11930;53.076;18.250;2023-12-07T07:58:36;-0.80;99.90
23507;DHT22;11930;53.076;18.250;2023-12-07T08:01:03;-0.80;99.90
23507;DHT22;11930;53.076;18.250;2023-12-07T08:03:29;-0.70;99.90
23507;DHT22;11930;53.076;18.250;2023-12-07T08:05:56;-0.70;99.90
23507;DHT22;11930;53.076;18.250;2023-12-07T08:08:22;-0.70;99.90
23507;DHT22;11930;53.076;18.250;2023-12-07T08:10:48;-0.70;99.90
23507;DHT22;11930;53.076;18.250;2023-12-07T08:13:14;-0.70;99.90
23507;DHT22;11930;53.076;18.250;2023-12-07T08:15:41;-0.60;99.90
23507;DHT22;11930;53.076;18.250;2023-12-07T08:18:07;-0.60;99.90
23507;DHT22;11930;53.076;18.250;2023-12-07T08:20:33;-0.50;99.90
23507;DHT22;11930;53.076;18.250;2023-12-07T08:22:59;-0.50;99.90
23507;DHT22;11930;53.076;18.250;2023-12-07T08:25:26;-0.50;99.90
23507;DHT22;11930;53.076;18.250;2023-12-07T08:27:52;-0.40;99.90
23507;DHT22;11930;53.076;18.250;2023-12-07T08:30:18;-0.40;99.90
23507;DHT22;11930;53.076;18.250;2023-12-07T08:32:45;-0.40;99.90
23507;DHT22;11930;53.076;18.250;2023-12-07T08:35:11;-0.30;99.90
23507;DHT22;11930;53.076;18.250;2023-12-07T08:37:38;-0.30;99.90
23507;DHT22;11930;53.076;18.250;2023-12-07T08:40:06;-0.20;99.90
23507;DHT22;11930;53.076;18.250;2023-12-07T08:42:32;-0.10;99.90
23507;DHT22;11930;53.076;18.250;2023-12-07T08:44:58;-0.10;99.90
23507;DHT22;11930;53.076;18.250;2023-12-07T08:47:24;0.00;99.90
23507;DHT22;11930;53.076;18.250;2023-12-07T08:49:53;0.00;99.90
23507;DHT22;11930;53.076;18.250;2023-12-07T08:52:19;0.10;99.90
23507;DHT22;11930;53.076;18.250;2023-12-07T08:54:46;0.10;99.90
23507;DHT22;11930;53.076;18.250;2023-12-07T08:57:12;0.10;99.90
23507;DHT22;11930;53.076;18.250;2023-12-07T08:59:38;0.20;99.90
23507;DHT22;11930;53.076;18.250;2023-12-07T09:02:05;0.20;99.90
23507;DHT22;11930;53.076;18.250;2023-12-07T09:04:31;0.20;99.90
23507;DHT22;11930;53.076;18.250;2023-12-07T09:06:57;0.20;99.90
23507;DHT22;11930;53.076;18.250;2023-12-07T09:09:23;0.20;99.90
23507;DHT22;11930;53.076;18.250;2023-12-07T09:11:51;0.30;99.90
23507;DHT22;11930;53.076;18.250;2023-12-07T09:14:17;0.40;99.90
23507;DHT22;11930;53.076;18.250;2023-12-07T09:16:44;0.40;99.90
23507;DHT22;11930;53.076;18.250;2023-12-07T09:19:12;0.50;99.90
23507;DHT22;11930;53.076;18.250;2023-12-07T09:21:39;0.50;99.90
23507;DHT22;11930;53.076;18.250;2023-12-07T09:24:05;0.60;99.90
23507;DHT22;11930;53.076;18.250;2023-12-07T09:26:32;0.60;99.90
23507;DHT22;11930;53.076;18.250;2023-12-07T09:28:59;0.70;99.90
23507;DHT22;11930;53.076;18.250;2023-12-07T09:31:25;0.70;99.90
23507;DHT22;11930;53.076;18.250;2023-12-07T09:33:51;0.80;99.90
23507;DHT22;11930;53.076;18.250;2023-12-07T09:36:19;0.70;99.90
23507;DHT22;11930;53.076;18.250;2023-12-07T09:38:47;0.80;99.90
23507;DHT22;11930;53.076;18.250;2023-12-07T09:41:13;0.80;99.90
23507;DHT22;11930;53.076;18.250;2023-12-07T09:43:40;0.80;99.90
23507;DHT22;11930;53.076;18.250;2023-12-07T09:46:06;0.70;99.90
23507;DHT22;11930;53.076;18.250;2023-12-07T09:48:37;0.70;99.90
23507;DHT22;11930;53.076;18.250;2023-12-07T09:51:06;0.70;99.90
23507;DHT22;11930;53.076;18.250;2023-12-07T09:53:33;0.70;99.90
23507;DHT22;11930;53.076;18.250;2023-12-07T09:56:00;0.70;99.90
23507;DHT22;11930;53.076;18.250;2023-12-07T09:58:26;0.70;99.90
23507;DHT22;11930;53.076;18.250;2023-12-07T10:00:52;0.70;99.90
23507;DHT22;11930;53.076;18.250;2023-12-07T10:03:23;0.70;99.90
23507;DHT22;11930;53.076;18.250;2023-12-07T10:05:59;0.80;99.90
23507;DHT22;11930;53.076;18.250;2023-12-07T10:08:27;0.80;99.90
23507;DHT22;11930;53.076;18.250;2023-12-07T10:11:08;0.80;99.90
23507;DHT22;11930;53.076;18.250;2023-12-07T10:13:35;0.90;99.90
23507;DHT22;11930;53.076;18.250;2023-12-07T10:16:11;0.90;99.90
23507;DHT22;11930;53.076;18.250;2023-12-07T10:18:39;0.90;99.90
23507;DHT22;11930;53.076;18.250;2023-12-07T10:21:07;0.90;99.90
23507;DHT22;11930;53.076;18.250;2023-12-07T10:23:34;0.90;99.90
23507;DHT22;11930;53.076;18.250;2023-12-07T10:26:00;0.90;99.90
23507;DHT22;11930;53.076;18.250;2023-12-07T10:28:26;0.90;99.90
23507;DHT22;11930;53.076;18.250;2023-12-07T10:30:52;0.90;99.90
23507;DHT22;11930;53.076;18.250;2023-12-07T10:33:21;0.90;99.90
23507;DHT22;11930;53.076;18.250;2023-12-07T10:35:47;0.90;99.90
23507;DHT22;11930;53.076;18.250;2023-12-07T10:38:16;1.00;99.90
23507;DHT22;11930;53.076;18.250;2023-12-07T10:40:43;1.00;99.90
23507;DHT22;11930;53.076;18.250;2023-12-07T10:43:10;1.10;99.90
23507;DHT22;11930;53.076;18.250;2023-12-07T10:45:36;1.10;99.90
23507;DHT22;11930;53.076;18.250;2023-12-07T10:48:06;1.10;99.90
23507;DHT22;11930;53.076;18.250;2023-12-07T10:50:35;1.10;99.90
23507;DHT22;11930;53.076;18.250;2023-12-07T10:53:09;1.10;99.90
23507;DHT22;11930;53.076;18.250;2023-12-07T10:55:42;1.20;99.90
23507;DHT22;11930;53.076;18.250;2023-12-07T10:58:11;1.10;99.90
23507;DHT22;11930;53.076;18.250;2023-12-07T11:00:42;1.10;99.90
23507;DHT22;11930;53.076;18.250;2023-12-07T11:03:16;1.10;99.90
23507;DHT22;11930;53.076;18.250;2023-12-07T11:05:45;1.10;99.90
23507;DHT22;11930;53.076;18.250;2023-12-07T11:11:09;1.10;99.90
23507;DHT22;11930;53.076;18.250;2023-12-07T11:13:40;1.10;99.90
23507;DHT22;11930;53.076;18.250;2023-12-07T11:16:11;1.10;99.90
23507;DHT22;11930;53.076;18.250;2023-12-07T11:18:37;1.10;99.90
23507;DHT22;11930;53.076;18.250;2023-12-07T11:21:03;1.10;99.90
23507;DHT22;11930;53.076;18.250;2023-12-07T11:23:31;1.10;99.90
23507;DHT22;11930;53.076;18.250;2023-12-07T11:25:57;1.10;99.90
23507;DHT22;11930;53.076;18.250;2023-12-07T11:28:35;1.10;99.90
23507;DHT22;11930;53.076;18.250;2023-12-07T11:31:02;1.10;99.90
23507;DHT22;11930;53.076;18.250;2023-12-07T11:33:29;1.10;99.90
23507;DHT22;11930;53.076;18.250;2023-12-07T11:36:09;1.10;99.90
23507;DHT22;11930;53.076;18.250;2023-12-07T11:41:24;1.20;99.90
23507;DHT22;11930;53.076;18.250;2023-12-07T11:43:50;1.20;99.90
23507;DHT22;11930;53.076;18.250;2023-12-07T11:46:19;1.20;99.90
23507;DHT22;11930;53.076;18.250;2023-12-07T11:48:47;1.20;99.90
23507;DHT22;11930;53.076;18.250;2023-12-07T11:51:15;1.20;99.90
23507;DHT22;11930;53.076;18.250;2023-12-07T11:53:41;1.20;99.90
23507;DHT22;11930;53.076;18.250;2023-12-07T11:56:09;1.10;99.90
23507;DHT22;11930;53.076;18.250;2023-12-07T11:58:39;1.10;99.90
23507;DHT22;11930;53.076;18.250;2023-12-07T12:01:06;1.10;99.90
23507;DHT22;11930;53.076;18.250;2023-12-07T12:03:34;1.10;99.90
23507;DHT22;11930;53.076;18.250;2023-12-07T12:06:06;1.10;99.90
23507;DHT22;11930;53.076;18.250;2023-12-07T12:08:34;1.10;99.90
23507;DHT22;11930;53.076;18.250;2023-12-07T12:11:00;1.10;99.90
23507;DHT22;11930;53.076;18.250;2023-12-07T12:13:27;1.10;99.90
23507;DHT22;11930;53.076;18.250;2023-12-07T12:15:54;1.10;99.90
23507;DHT22;11930;53.076;18.250;2023-12-07T12:18:22;1.20;99.90
23507;DHT22;11930;53.076;18.250;2023-12-07T12:20:50;1.20;99.90
23507;DHT22;11930;53.076;18.250;2023-12-07T12:23:17;1.20;99.90
23507;DHT22;11930;53.076;18.250;2023-12-07T12:25:43;1.20;99.90
23507;DHT22;11930;53.076;18.250;2023-12-07T12:28:10;1.20;99.90
23507;DHT22;11930;53.076;18.250;2023-12-07T12:30:37;1.30;99.90
23507;DHT22;11930;53.076;18.250;2023-12-07T12:33:03;1.20;99.90
23507;DHT22;11930;53.076;18.250;2023-12-07T12:35:30;1.20;99.90
23507;DHT22;11930;53.076;18.250;2023-12-07T12:37:57;1.20;99.90
23507;DHT22;11930;53.076;18.250;2023-12-07T12:40:23;1.20;99.90
23507;DHT22;11930;53.076;18.250;2023-12-07T12:42:52;1.20;99.90
23507;DHT22;11930;53.076;18.250;2023-12-07T12:45:19;1.20;99.90
23507;DHT22;11930;53.076;18.250;2023-12-07T12:47:47;1.20;99.90
23507;DHT22;11930;53.076;18.250;2023-12-07T12:50:33;1.20;99.90
23507;DHT22;11930;53.076;18.250;2023-12-07T12:53:00;1.20;99.90
23507;DHT22;11930;53.076;18.250;2023-12-07T12:55:27;1.20;99.90
23507;DHT22;11930;53.076;18.250;2023-12-07T12:57:55;1.20;99.90
23507;DHT22;11930;53.076;18.250;2023-12-07T13:00:24;1.20;99.90
23507;DHT22;11930;53.076;18.250;2023-12-07T13:02:50;1.20;99.90
23507;DHT22;11930;53.076;18.250;2023-12-07T13:05:16;1.20;99.90
23507;DHT22;11930;53.076;18.250;2023-12-07T13:07:46;1.20;99.90
23507;DHT22;11930;53.076;18.250;2023-12-07T13:10:15;1.20;99.90
23507;DHT22;11930;53.076;18.250;2023-12-07T13:12:42;1.10;99.90
23507;DHT22;11930;53.076;18.250;2023-12-07T13:15:09;1.10;99.90
23507;DHT22;11930;53.076;18.250;2023-12-07T13:17:36;1.10;99.90
23507;DHT22;11930;53.076;18.250;2023-12-07T13:20:02;1.00;99.90
23507;DHT22;11930;53.076;18.250;2023-12-07T13:22:29;1.00;99.90
23507;DHT22;11930;53.076;18.250;2023-12-07T13:24:55;1.00;99.90
23507;DHT22;11930;53.076;18.250;2023-12-07T13:27:21;0.90;99.90
23507;DHT22;11930;53.076;18.250;2023-12-07T13:29:47;0.90;99.90
23507;DHT22;11930;53.076;18.250;2023-12-07T13:32:14;0.90;99.90
23507;DHT22;11930;53.076;18.250;2023-12-07T13:34:39;0.90;99.90
23507;DHT22;11930;53.076;18.250;2023-12-07T13:37:06;0.80;99.90
23507;DHT22;11930;53.076;18.250;2023-12-07T13:39:32;0.80;99.90
23507;DHT22;11930;53.076;18.250;2023-12-07T13:41:58;0.70;99.90
23507;DHT22;11930;53.076;18.250;2023-12-07T13:44:25;0.70;99.90
23507;DHT22;11930;53.076;18.250;2023-12-07T13:46:51;0.70;99.90
23507;DHT22;11930;53.076;18.250;2023-12-07T13:49:20;0.70;99.90
23507;DHT22;11930;53.076;18.250;2023-12-07T13:51:47;0.70;99.90
23507;DHT22;11930;53.076;18.250;2023-12-07T13:54:13;0.70;99.90
23507;DHT22;11930;53.076;18.250;2023-12-07T13:56:39;0.70;99.90
23507;DHT22;11930;53.076;18.250;2023-12-07T13:59:05;0.70;99.90
23507;DHT22;11930;53.076;18.250;2023-12-07T14:01:35;0.70;99.90
23507;DHT22;11930;53.076;18.250;2023-12-07T14:04:01;0.70;99.90
23507;DHT22;11930;53.076;18.250;2023-12-07T14:06:28;0.70;99.90
23507;DHT22;11930;53.076;18.250;2023-12-07T14:08:53;0.70;99.90
23507;DHT22;11930;53.076;18.250;2023-12-07T14:11:20;0.70;99.90
23507;DHT22;11930;53.076;18.250;2023-12-07T14:13:46;0.60;99.90
23507;DHT22;11930;53.076;18.250;2023-12-07T14:16:12;0.60;99.90
23507;DHT22;11930;53.076;18.250;2023-12-07T14:18:39;0.60;99.90
23507;DHT22;11930;53.076;18.250;2023-12-07T14:21:05;0.60;99.90
23507;DHT22;11930;53.076;18.250;2023-12-07T14:23:31;0.70;99.90
23507;DHT22;11930;53.076;18.250;2023-12-07T14:25:58;0.60;99.90
23507;DHT22;11930;53.076;18.250;2023-12-07T14:28:25;0.60;99.90
23507;DHT22;11930;53.076;18.250;2023-12-07T14:30:54;0.70;99.90
23507;DHT22;11930;53.076;18.250;2023-12-07T14:33:22;0.60;99.90
23507;DHT22;11930;53.076;18.250;2023-12-07T14:35:48;0.60;99.90
23507;DHT22;11930;53.076;18.250;2023-12-07T14:38:15;0.60;99.90
23507;DHT22;11930;53.076;18.250;2023-12-07T14:40:41;0.60;99.90
23507;DHT22;11930;53.076;18.250;2023-12-07T14:43:08;0.60;99.90
23507;DHT22;11930;53.076;18.250;2023-12-07T14:45:34;0.60;99.90
23507;DHT22;11930;53.076;18.250;2023-12-07T14:48:00;0.60;99.90
23507;DHT22;11930;53.076;18.250;2023-12-07T14:50:27;0.60;99.90
23507;DHT22;11930;53.076;18.250;2023-12-07T14:52:52;0.60;99.90
23507;DHT22;11930;53.076;18.250;2023-12-07T14:55:19;0.60;99.90
23507;DHT22;11930;53.076;18.250;2023-12-07T14:57:45;0.60;99.90
23507;DHT22;11930;53.076;18.250;2023-12-07T15:00:14;0.60;99.90
23507;DHT22;11930;53.076;18.250;2023-12-07T15:02:40;0.60;99.90
23507;DHT22;11930;53.076;18.250;2023-12-07T15:05:08;0.60;99.90
23507;DHT22;11930;53.076;18.250;2023-12-07T15:07:34;0.60;99.90
23507;DHT22;11930;53.076;18.250;2023-12-07T15:10:00;0.60;99.90
23507;DHT22;11930;53.076;18.250;2023-12-07T15:12:26;0.60;99.90
23507;DHT22;11930;53.076;18.250;2023-12-07T15:14:52;0.60;99.90
23507;DHT22;11930;53.076;18.250;2023-12-07T15:17:18;0.50;99.90
23507;DHT22;11930;53.076;18.250;2023-12-07T15:19:45;0.60;99.90
23507;DHT22;11930;53.076;18.250;2023-12-07T15:22:11;0.60;99.90
23507;DHT22;11930;53.076;18.250;2023-12-07T15:24:37;0.60;99.90
23507;DHT22;11930;53.076;18.250;2023-12-07T15:27:04;0.60;99.90
23507;DHT22;11930;53.076;18.250;2023-12-07T15:29:30;0.60;99.90
23507;DHT22;11930;53.076;18.250;2023-12-07T15:31:56;0.60;99.90